sensor_id;sensor_type;location;lat;lon;timestamp;temperature;humidity
57652;DHT22;43480;53.116;6.734;2022-11-15T00:01:27;7.90;99.90
57652;DHT22;43480;53.116;6.734;2022-11-15T00:03:53;7.80;99.90
57652;DHT22;43480;53.116;6.734;2022-11-15T00:06:18;7.70;99.90
57652;DHT22;43480;53.116;6.734;2022-11-15T00:08:44;7.60;99.90
57652;DHT22;43480;53.116;6.734;2022-11-15T00:11:10;7.60;99.90
57652;DHT22;43480;53.116;6.734;2022-11-15T00:13:36;7.50;99.90
57652;DHT22;43480;53.116;6.734;2022-11-15T00:16:01;7.40;99.90
57652;DHT22;43480;53.116;6.734;2022-11-15T00:18:28;7.30;99.90
57652;DHT22;43480;53.116;6.734;2022-11-15T00:20:53;7.20;99.90
57652;DHT22;43480;53.116;6.734;2022-11-15T00:23:19;7.20;99.90
57652;DHT22;43480;53.116;6.734;2022-11-15T00:25:44;7.20;99.90
57652;DHT22;43480;53.116;6.734;2022-11-15T00:28:10;7.20;99.90
57652;DHT22;43480;53.116;6.734;2022-11-15T00:30:35;7.20;99.90
57652;DHT22;43480;53.116;6.734;2022-11-15T00:33:04;7.10;99.90
57652;DHT22;43480;53.116;6.734;2022-11-15T00:35:33;7.20;99.90
57652;DHT22;43480;53.116;6.734;2022-11-15T00:37:59;7.10;99.90
57652;DHT22;43480;53.116;6.734;2022-11-15T00:40:25;7.10;99.90
57652;DHT22;43480;53.116;6.734;2022-11-15T00:42:50;7.00;99.90
57652;DHT22;43480;53.116;6.734;2022-11-15T00:45:16;6.90;99.90
57652;DHT22;43480;53.116;6.734;2022-11-15T00:47:44;6.90;99.90
57652;DHT22;43480;53.116;6.734;2022-11-15T00:50:09;6.80;99.90
57652;DHT22;43480;53.116;6.734;2022-11-15T00:52:35;6.80;99.90
57652;DHT22;43480;53.116;6.734;2022-11-15T00:55:00;6.70;99.90
57652;DHT22;43480;53.116;6.734;2022-11-15T00:57:26;6.70;99.90
57652;DHT22;43480;53.116;6.734;2022-11-15T00:59:51;6.70;99.90
57652;DHT22;43480;53.116;6.734;2022-11-15T01:02:17;6.70;99.90
57652;DHT22;43480;53.116;6.734;2022-11-15T01:04:42;6.60;99.90
57652;DHT22;43480;53.116;6.734;2022-11-15T01:07:08;6.60;99.90
57652;DHT22;43480;53.116;6.734;2022-11-15T01:09:33;6.60;99.90
57652;DHT22;43480;53.116;6.734;2022-11-15T01:11:59;6.60;99.90
57652;DHT22;43480;53.116;6.734;2022-11-15T01:14:24;6.60;99.90
57652;DHT22;43480;53.116;6.734;2022-11-15T01:16:50;6.70;99.90
57652;DHT22;43480;53.116;6.734;2022-11-15T01:19:15;6.70;99.90
57652;DHT22;43480;53.116;6.734;2022-11-15T01:21:41;6.80;99.90
57652;DHT22;43480;53.116;6.734;2022-11-15T01:24:07;6.90;99.90
57652;DHT22;43480;53.116;6.734;2022-11-15T01:26:32;7.00;99.90
57652;DHT22;43480;53.116;6.734;2022-11-15T01:28:58;7.00;99.90
57652;DHT22;43480;53.116;6.734;2022-11-15T01:31:23;7.10;99.90
57652;DHT22;43480;53.116;6.734;2022-11-15T01:33:49;7.10;99.90
57652;DHT22;43480;53.116;6.734;2022-11-15T01:36:19;7.10;99.90
57652;DHT22;43480;53.116;6.734;2022-11-15T01:38:47;7.30;99.90
57652;DHT22;43480;53.116;6.734;2022-11-15T01:41:19;7.30;99.90
57652;DHT22;43480;53.116;6.734;2022-11-15T01:43:46;7.30;99.90
57652;DHT22;43480;53.116;6.734;2022-11-15T01:48:47;7.50;99.90
57652;DHT22;43480;53.116;6.734;2022-11-15T01:51:13;7.50;99.90
57652;DHT22;43480;53.116;6.734;2022-11-15T01:53:41;7.50;99.90
57652;DHT22;43480;53.116;6.734;2022-11-15T01:56:16;7.50;99.90
57652;DHT22;43480;53.116;6.734;2022-11-15T01:58:42;7.60;99.90
57652;DHT22;43480;53.116;6.734;2022-11-15T02:01:08;7.60;99.90
57652;DHT22;43480;53.116;6.734;2022-11-15T02:03:36;7.60;99.90
57652;DHT22;43480;53.116;6.734;2022-11-15T02:06:05;7.60;99.90
57652;DHT22;43480;53.116;6.734;2022-11-15T02:08:30;7.60;99.90
57652;DHT22;43480;53.116;6.734;2022-11-15T02:10:56;7.60;99.90
57652;DHT22;43480;53.116;6.734;2022-11-15T02:13:21;7.60;99.90
57652;DHT22;43480;53.116;6.734;2022-11-15T02:15:52;7.60;99.90
57652;DHT22;43480;53.116;6.734;2022-11-15T02:18:42;7.70;99.90
57652;DHT22;43480;53.116;6.734;2022-11-15T02:21:15;7.70;99.90
57652;DHT22;43480;53.116;6.734;2022-11-15T02:31:36;7.70;99.90
57652;DHT22;43480;53.116;6.734;2022-11-15T02:39:08;7.80;99.90
57652;DHT22;43480;53.116;6.734;2022-11-15T02:42:19;7.70;99.90
57652;DHT22;43480;53.116;6.734;2022-11-15T02:44:26;7.80;99.90
57652;DHT22;43480;53.116;6.734;2022-11-15T02:46:54;7.80;99.90
57652;DHT22;43480;53.116;6.734;2022-11-15T02:49:39;7.80;99.90
57652;DHT22;43480;53.116;6.734;2022-11-15T02:52:05;7.80;99.90
57652;DHT22;43480;53.116;6.734;2022-11-15T02:54:31;7.80;99.90
57652;DHT22;43480;53.116;6.734;2022-11-15T02:57:01;7.80;99.90
57652;DHT22;43480;53.116;6.734;2022-11-15T03:07:12;7.80;99.90
57652;DHT22;43480;53.116;6.734;2022-11-15T03:09:40;7.90;99.90
57652;DHT22;43480;53.116;6.734;2022-11-15T03:12:12;7.90;99.90
57652;DHT22;43480;53.116;6.734;2022-11-15T03:14:50;7.90;99.90
57652;DHT22;43480;53.116;6.734;2022-11-15T03:17:28;7.90;99.90
57652;DHT22;43480;53.116;6.734;2022-11-15T03:19:56;7.90;99.90
57652;DHT22;43480;53.116;6.734;2022-11-15T03:22:23;7.90;99.90
57652;DHT22;43480;53.116;6.734;2022-11-15T03:24:50;7.90;99.90
57652;DHT22;43480;53.116;6.734;2022-11-15T03:27:17;7.90;99.90
57652;DHT22;43480;53.116;6.734;2022-11-15T03:29:48;8.00;99.90
57652;DHT22;43480;53.116;6.734;2022-11-15T03:32:16;7.90;99.90
57652;DHT22;43480;53.116;6.734;2022-11-15T03:37:10;8.00;99.90
57652;DHT22;43480;53.116;6.734;2022-11-15T03:39:37;8.00;99.90
57652;DHT22;43480;53.116;6.734;2022-11-15T03:42:20;8.10;99.90
57652;DHT22;43480;53.116;6.734;2022-11-15T03:47:41;8.10;99.90
57652;DHT22;43480;53.116;6.734;2022-11-15T03:50:10;8.10;99.90
57652;DHT22;43480;53.116;6.734;2022-11-15T03:52:37;8.10;99.90
57652;DHT22;43480;53.116;6.734;2022-11-15T03:55:05;8.10;99.90
57652;DHT22;43480;53.116;6.734;2022-11-15T03:57:31;8.10;99.90
57652;DHT22;43480;53.116;6.734;2022-11-15T03:59:57;8.10;99.90
57652;DHT22;43480;53.116;6.734;2022-11-15T04:02:22;8.10;99.90
57652;DHT22;43480;53.116;6.734;2022-11-15T04:04:48;8.10;99.90
57652;DHT22;43480;53.116;6.734;2022-11-15T04:07:13;8.20;99.90
57652;DHT22;43480;53.116;6.734;2022-11-15T04:09:39;8.20;99.90
57652;DHT22;43480;53.116;6.734;2022-11-15T04:12:37;8.20;99.90
57652;DHT22;43480;53.116;6.734;2022-11-15T04:15:14;8.20;99.90
57652;DHT22;43480;53.116;6.734;2022-11-15T04:17:43;8.20;99.90
57652;DHT22;43480;53.116;6.734;2022-11-15T04:20:11;8.20;99.90
57652;DHT22;43480;53.116;6.734;2022-11-15T04:22:56;8.20;99.90
57652;DHT22;43480;53.116;6.734;2022-11-15T04:25:40;8.20;99.90
57652;DHT22;43480;53.116;6.734;2022-11-15T04:28:06;8.20;99.90
57652;DHT22;43480;53.116;6.734;2022-11-15T04:30:32;8.20;99.90
57652;DHT22;43480;53.116;6.734;2022-11-15T04:32:57;8.20;99.90
57652;DHT22;43480;53.116;6.734;2022-11-15T04:35:23;8.20;99.90
57652;DHT22;43480;53.116;6.734;2022-11-15T04:37:48;8.30;99.90
57652;DHT22;43480;53.116;6.734;2022-11-15T04:40:14;8.30;99.90
57652;DHT22;43480;53.116;6.734;2022-11-15T04:42:43;8.30;99.90
57652;DHT22;43480;53.116;6.734;2022-11-15T04:45:08;8.30;99.90
57652;DHT22;43480;53.116;6.734;2022-11-15T04:47:34;8.30;99.90
57652;DHT22;43480;53.116;6.734;2022-11-15T04:49:59;8.30;99.90
57652;DHT22;43480;53.116;6.734;2022-11-15T04:52:25;8.30;99.90
57652;DHT22;43480;53.116;6.734;2022-11-15T04:54:50;8.30;99.90
57652;DHT22;43480;53.116;6.734;2022-11-15T04:57:16;8.30;99.90
57652;DHT22;43480;53.116;6.734;2022-11-15T04:59:41;8.40;99.90
57652;DHT22;43480;53.116;6.734;2022-11-15T05:02:07;8.30;99.90
57652;DHT22;43480;53.116;6.734;2022-11-15T05:04:32;8.40;99.90
57652;DHT22;43480;53.116;6.734;2022-11-15T05:06:58;8.40;99.90
57652;DHT22;43480;53.116;6.734;2022-11-15T05:09:23;8.40;99.90
57652;DHT22;43480;53.116;6.734;2022-11-15T05:11:49;8.40;99.90
57652;DHT22;43480;53.116;6.734;2022-11-15T05:14:15;8.50;99.90
57652;DHT22;43480;53.116;6.734;2022-11-15T05:16:41;8.50;99.90
57652;DHT22;43480;53.116;6.734;2022-11-15T05:19:06;8.50;99.90
57652;DHT22;43480;53.116;6.734;2022-11-15T05:21:32;8.50;99.90
57652;DHT22;43480;53.116;6.734;2022-11-15T05:23:58;8.40;99.90
57652;DHT22;43480;53.116;6.734;2022-11-15T05:26:24;8.50;99.90
57652;DHT22;43480;53.116;6.734;2022-11-15T05:28:53;8.40;99.90
57652;DHT22;43480;53.116;6.734;2022-11-15T05:31:20;8.50;99.90
57652;DHT22;43480;53.116;6.734;2022-11-15T05:33:45;8.50;99.90
57652;DHT22;43480;53.116;6.734;2022-11-15T05:36:28;8.50;99.90
57652;DHT22;43480;53.116;6.734;2022-11-15T05:38:54;8.50;99.90
57652;DHT22;43480;53.116;6.734;2022-11-15T05:42:06;8.50;99.90
57652;DHT22;43480;53.116;6.734;2022-11-15T05:44:06;8.50;99.90
57652;DHT22;43480;53.116;6.734;2022-11-15T05:46:33;8.50;99.90
57652;DHT22;43480;53.116;6.734;2022-11-15T05:48:59;8.50;99.90
57652;DHT22;43480;53.116;6.734;2022-11-15T05:51:24;8.50;99.90
57652;DHT22;43480;53.116;6.734;2022-11-15T05:53:53;8.60;99.90
57652;DHT22;43480;53.116;6.734;2022-11-15T05:56:20;8.60;99.90
57652;DHT22;43480;53.116;6.734;2022-11-15T05:58:46;8.60;99.90
57652;DHT22;43480;53.116;6.734;2022-11-15T06:01:11;8.60;99.90
57652;DHT22;43480;53.116;6.734;2022-11-15T06:03:37;8.60;99.90
57652;DHT22;43480;53.116;6.734;2022-11-15T06:06:02;8.60;99.90
57652;DHT22;43480;53.116;6.734;2022-11-15T06:08:28;8.70;99.90
57652;DHT22;43480;53.116;6.734;2022-11-15T06:10:53;8.70;99.90
57652;DHT22;43480;53.116;6.734;2022-11-15T06:13:19;8.70;99.90
57652;DHT22;43480;53.116;6.734;2022-11-15T06:15:44;8.80;99.90
57652;DHT22;43480;53.116;6.734;2022-11-15T06:18:10;8.80;99.90
57652;DHT22;43480;53.116;6.734;2022-11-15T06:20:36;8.90;99.90
57652;DHT22;43480;53.116;6.734;2022-11-15T06:23:02;8.90;99.90
57652;DHT22;43480;53.116;6.734;2022-11-15T06:25:28;8.90;99.90
57652;DHT22;43480;53.116;6.734;2022-11-15T06:27:54;9.00;99.90
57652;DHT22;43480;53.116;6.734;2022-11-15T06:30:20;9.00;99.90
57652;DHT22;43480;53.116;6.734;2022-11-15T06:32:46;9.00;99.90
57652;DHT22;43480;53.116;6.734;2022-11-15T06:35:12;9.00;99.90
57652;DHT22;43480;53.116;6.734;2022-11-15T06:37:37;9.10;99.90
57652;DHT22;43480;53.116;6.734;2022-11-15T06:40:03;9.10;99.90
57652;DHT22;43480;53.116;6.734;2022-11-15T06:42:29;9.10;99.90
57652;DHT22;43480;53.116;6.734;2022-11-15T06:44:54;9.10;99.90
57652;DHT22;43480;53.116;6.734;2022-11-15T06:47:20;9.20;99.90
57652;DHT22;43480;53.116;6.734;2022-11-15T06:49:45;9.20;99.90
57652;DHT22;43480;53.116;6.734;2022-11-15T06:52:11;9.30;99.90
57652;DHT22;43480;53.116;6.734;2022-11-15T06:54:36;9.30;99.90
57652;DHT22;43480;53.116;6.734;2022-11-15T06:57:03;9.30;99.90
57652;DHT22;43480;53.116;6.734;2022-11-15T06:59:29;9.30;99.90
57652;DHT22;43480;53.116;6.734;2022-11-15T07:01:54;9.30;99.90
57652;DHT22;43480;53.116;6.734;2022-11-15T07:04:20;9.40;99.90
57652;DHT22;43480;53.116;6.734;2022-11-15T07:06:46;9.40;99.90
57652;DHT22;43480;53.116;6.734;2022-11-15T07:09:12;9.40;99.90
57652;DHT22;43480;53.116;6.734;2022-11-15T07:11:37;9.50;99.90
57652;DHT22;43480;53.116;6.734;2022-11-15T07:14:03;9.50;99.90
57652;DHT22;43480;53.116;6.734;2022-11-15T07:16:28;9.50;99.90
57652;DHT22;43480;53.116;6.734;2022-11-15T07:18:54;9.50;99.90
57652;DHT22;43480;53.116;6.734;2022-11-15T07:21:19;9.50;99.90
57652;DHT22;43480;53.116;6.734;2022-11-15T07:23:45;9.50;99.90
57652;DHT22;43480;53.116;6.734;2022-11-15T07:26:10;9.60;99.90
57652;DHT22;43480;53.116;6.734;2022-11-15T07:28:36;9.60;99.90
57652;DHT22;43480;53.116;6.734;2022-11-15T07:31:05;9.60;99.90
57652;DHT22;43480;53.116;6.734;2022-11-15T07:33:30;9.70;99.90
57652;DHT22;43480;53.116;6.734;2022-11-15T07:36:00;9.70;99.90
57652;DHT22;43480;53.116;6.734;2022-11-15T07:38:27;9.70;99.90
57652;DHT22;43480;53.116;6.734;2022-11-15T07:40:56;9.80;99.90
57652;DHT22;43480;53.116;6.734;2022-11-15T07:43:22;9.80;99.90
57652;DHT22;43480;53.116;6.734;2022-11-15T07:45:47;9.80;99.90
57652;DHT22;43480;53.116;6.734;2022-11-15T07:48:13;9.90;99.90
57652;DHT22;43480;53.116;6.734;2022-11-15T07:50:42;9.90;99.90
57652;DHT22;43480;53.116;6.734;2022-11-15T07:53:08;9.90;99.90
57652;DHT22;43480;53.116;6.734;2022-11-15T07:55:33;9.90;99.90
57652;DHT22;43480;53.116;6.734;2022-11-15T08:00:27;10.00;99.90
57652;DHT22;43480;53.116;6.734;2022-11-15T08:03:00;10.00;99.90
57652;DHT22;43480;53.116;6.734;2022-11-15T08:05:26;10.00;99.90
57652;DHT22;43480;53.116;6.734;2022-11-15T08:07:51;10.10;99.90
57652;DHT22;43480;53.116;6.734;2022-11-15T08:10:17;10.10;99.90
57652;DHT22;43480;53.116;6.734;2022-11-15T08:12:44;10.10;99.90
57652;DHT22;43480;53.116;6.734;2022-11-15T08:15:09;10.10;99.90
57652;DHT22;43480;53.116;6.734;2022-11-15T08:17:35;10.20;99.90
57652;DHT22;43480;53.116;6.734;2022-11-15T08:20:00;10.20;99.90
57652;DHT22;43480;53.116;6.734;2022-11-15T08:22:26;10.20;99.90
57652;DHT22;43480;53.116;6.734;2022-11-15T08:24:52;10.30;99.90
57652;DHT22;43480;53.116;6.734;2022-11-15T08:27:17;10.30;99.90
57652;DHT22;43480;53.116;6.734;2022-11-15T08:29:43;10.40;99.90
57652;DHT22;43480;53.116;6.734;2022-11-15T08:32:09;10.50;99.90
57652;DHT22;43480;53.116;6.734;2022-11-15T08:34:35;10.50;99.90
57652;DHT22;43480;53.116;6.734;2022-11-15T08:37:00;10.60;99.90
57652;DHT22;43480;53.116;6.734;2022-11-15T08:39:26;10.60;99.90
57652;DHT22;43480;53.116;6.734;2022-11-15T08:41:51;10.60;99.90
57652;DHT22;43480;53.116;6.734;2022-11-15T08:44:17;10.60;99.90
57652;DHT22;43480;53.116;6.734;2022-11-15T08:46:45;10.70;99.90
57652;DHT22;43480;53.116;6.734;2022-11-15T08:49:10;10.70;99.90
57652;DHT22;43480;53.116;6.734;2022-11-15T08:51:36;10.80;99.90
57652;DHT22;43480;53.116;6.734;2022-11-15T08:54:01;10.90;99.90
57652;DHT22;43480;53.116;6.734;2022-11-15T08:56:27;10.90;99.90
57652;DHT22;43480;53.116;6.734;2022-11-15T08:58:52;11.00;99.90
57652;DHT22;43480;53.116;6.734;2022-11-15T09:01:19;11.00;99.90
57652;DHT22;43480;53.116;6.734;2022-11-15T09:03:44;11.10;99.90
57652;DHT22;43480;53.116;6.734;2022-11-15T09:06:10;11.10;99.90
57652;DHT22;43480;53.116;6.734;2022-11-15T09:08:35;11.20;99.90
57652;DHT22;43480;53.116;6.734;2022-11-15T09:11:07;11.10;99.90
57652;DHT22;43480;53.116;6.734;2022-11-15T09:13:32;11.10;99.90
57652;DHT22;43480;53.116;6.734;2022-11-15T09:15:58;11.10;99.90
57652;DHT22;43480;53.116;6.734;2022-11-15T09:18:24;11.10;99.90
57652;DHT22;43480;53.116;6.734;2022-11-15T09:20:50;11.20;99.90
57652;DHT22;43480;53.116;6.734;2022-11-15T09:23:15;11.20;99.90
57652;DHT22;43480;53.116;6.734;2022-11-15T09:25:41;11.20;99.90
57652;DHT22;43480;53.116;6.734;2022-11-15T09:28:07;11.20;99.90
57652;DHT22;43480;53.116;6.734;2022-11-15T09:30:33;11.20;99.90
57652;DHT22;43480;53.116;6.734;2022-11-15T09:32:58;11.30;99.90
57652;DHT22;43480;53.116;6.734;2022-11-15T09:35:24;11.30;99.90
57652;DHT22;43480;53.116;6.734;2022-11-15T09:37:49;11.30;99.90
57652;DHT22;43480;53.116;6.734;2022-11-15T09:40:15;11.40;99.90
57652;DHT22;43480;53.116;6.734;2022-11-15T09:46:15;11.40;99.90
57652;DHT22;43480;53.116;6.734;2022-11-15T09:50:43;11.50;99.90
57652;DHT22;43480;53.116;6.734;2022-11-15T09:53:13;11.50;99.90
57652;DHT22;43480;53.116;6.734;2022-11-15T09:58:25;11.70;99.90
57652;DHT22;43480;53.116;6.734;2022-11-15T10:00:52;11.70;99.90
57652;DHT22;43480;53.116;6.734;2022-11-15T10:05:47;11.70;99.90
57652;DHT22;43480;53.116;6.734;2022-11-15T10:08:35;11.70;99.90
57652;DHT22;43480;53.116;6.734;2022-11-15T10:11:13;11.70;99.90
57652;DHT22;43480;53.116;6.734;2022-11-15T10:13:41;11.70;99.90
57652;DHT22;43480;53.116;6.734;2022-11-15T10:16:12;11.70;99.90
57652;DHT22;43480;53.116;6.734;2022-11-15T10:21:15;11.70;99.90
57652;DHT22;43480;53.116;6.734;2022-11-15T10:23:42;11.70;99.90
57652;DHT22;43480;53.116;6.734;2022-11-15T10:26:08;11.70;99.90
57652;DHT22;43480;53.116;6.734;2022-11-15T10:28:35;11.70;99.90
57652;DHT22;43480;53.116;6.734;2022-11-15T10:31:01;11.70;99.90
57652;DHT22;43480;53.116;6.734;2022-11-15T10:36:25;11.70;99.90
57652;DHT22;43480;53.116;6.734;2022-11-15T10:43:41;11.60;99.90
57652;DHT22;43480;53.116;6.734;2022-11-15T10:46:19;11.60;99.90
57652;DHT22;43480;53.116;6.734;2022-11-15T10:48:45;11.60;99.90
57652;DHT22;43480;53.116;6.734;2022-11-15T10:51:21;11.60;99.90
57652;DHT22;43480;53.116;6.734;2022-11-15T10:53:47;11.60;99.90
57652;DHT22;43480;53.116;6.734;2022-11-15T10:56:14;11.50;99.90
57652;DHT22;43480;53.116;6.734;2022-11-15T10:58:41;11.50;99.90
57652;DHT22;43480;53.116;6.734;2022-11-15T11:03:39;11.50;99.90
57652;DHT22;43480;53.116;6.734;2022-11-15T11:06:10;11.60;99.90
57652;DHT22;43480;53.116;6.734;2022-11-15T11:08:36;11.60;99.90
57652;DHT22;43480;53.116;6.734;2022-11-15T11:11:02;11.70;99.90
57652;DHT22;43480;53.116;6.734;2022-11-15T11:13:29;11.70;99.90
57652;DHT22;43480;53.116;6.734;2022-11-15T11:18:28;11.70;99.90
57652;DHT22;43480;53.116;6.734;2022-11-15T11:21:00;11.80;99.90
57652;DHT22;43480;53.116;6.734;2022-11-15T11:26:29;11.80;99.90
57652;DHT22;43480;53.116;6.734;2022-11-15T11:39:23;12.00;99.90
57652;DHT22;43480;53.116;6.734;2022-11-15T11:44:34;12.20;99.90
57652;DHT22;43480;53.116;6.734;2022-11-15T11:47:03;12.30;99.90
57652;DHT22;43480;53.116;6.734;2022-11-15T12:00:38;12.80;99.90
57652;DHT22;43480;53.116;6.734;2022-11-15T12:05:37;12.80;99.90
57652;DHT22;43480;53.116;6.734;2022-11-15T12:08:12;12.90;99.90
57652;DHT22;43480;53.116;6.734;2022-11-15T12:10:40;13.00;99.90
57652;DHT22;43480;53.116;6.734;2022-11-15T12:13:11;13.00;99.90
57652;DHT22;43480;53.116;6.734;2022-11-15T12:15:40;13.00;99.90
57652;DHT22;43480;53.116;6.734;2022-11-15T12:18:07;12.90;99.90
57652;DHT22;43480;53.116;6.734;2022-11-15T12:20:35;12.80;99.90
57652;DHT22;43480;53.116;6.734;2022-11-15T12:23:16;12.70;99.90
57652;DHT22;43480;53.116;6.734;2022-11-15T12:25:45;12.80;99.90
57652;DHT22;43480;53.116;6.734;2022-11-15T12:28:20;12.70;99.90
57652;DHT22;43480;53.116;6.734;2022-11-15T12:31:03;12.70;99.90
57652;DHT22;43480;53.116;6.734;2022-11-15T12:33:34;12.60;99.90
57652;DHT22;43480;53.116;6.734;2022-11-15T12:36:11;12.60;99.90
57652;DHT22;43480;53.116;6.734;2022-11-15T12:41:23;12.50;99.90
57652;DHT22;43480;53.116;6.734;2022-11-15T12:43:49;12.40;99.90
57652;DHT22;43480;53.116;6.734;2022-11-15T12:51:21;12.40;99.90
57652;DHT22;43480;53.116;6.734;2022-11-15T12:53:47;12.30;99.90
57652;DHT22;43480;53.116;6.734;2022-11-15T13:01:06;12.20;99.90
57652;DHT22;43480;53.116;6.734;2022-11-15T13:03:32;12.20;99.90
57652;DHT22;43480;53.116;6.734;2022-11-15T13:05:58;12.20;99.90
57652;DHT22;43480;53.116;6.734;2022-11-15T13:13:53;12.50;99.90
57652;DHT22;43480;53.116;6.734;2022-11-15T13:16:20;12.70;99.90
57652;DHT22;43480;53.116;6.734;2022-11-15T13:18:52;12.80;99.90
57652;DHT22;43480;53.116;6.734;2022-11-15T13:21:20;12.90;99.90
57652;DHT22;43480;53.116;6.734;2022-11-15T13:24:09;13.00;99.90
57652;DHT22;43480;53.116;6.734;2022-11-15T13:26:37;12.90;99.90
57652;DHT22;43480;53.116;6.734;2022-11-15T13:29:03;12.90;99.90
57652;DHT22;43480;53.116;6.734;2022-11-15T13:31:40;12.90;99.90
57652;DHT22;43480;53.116;6.734;2022-11-15T13:34:24;12.80;99.90
57652;DHT22;43480;53.116;6.734;2022-11-15T13:36:50;12.80;99.90
57652;DHT22;43480;53.116;6.734;2022-11-15T13:39:29;12.70;99.90
57652;DHT22;43480;53.116;6.734;2022-11-15T13:41:54;12.60;99.90
57652;DHT22;43480;53.116;6.734;2022-11-15T13:44:24;12.50;99.90
57652;DHT22;43480;53.116;6.734;2022-11-15T13:47:06;12.40;99.90
57652;DHT22;43480;53.116;6.734;2022-11-15T13:49:32;12.40;99.90
57652;DHT22;43480;53.116;6.734;2022-11-15T13:51:59;12.40;99.90
57652;DHT22;43480;53.116;6.734;2022-11-15T13:54:27;12.30;99.90
57652;DHT22;43480;53.116;6.734;2022-11-15T13:57:05;12.30;99.90
57652;DHT22;43480;53.116;6.734;2022-11-15T13:59:34;12.30;99.90
57652;DHT22;43480;53.116;6.734;2022-11-15T14:02:02;12.30;99.90
57652;DHT22;43480;53.116;6.734;2022-11-15T14:04:28;12.20;99.90
57652;DHT22;43480;53.116;6.734;2022-11-15T14:06:56;12.20;99.90
57652;DHT22;43480;53.116;6.734;2022-11-15T14:11:55;12.20;99.90
57652;DHT22;43480;53.116;6.734;2022-11-15T14:14:22;12.10;99.90
57652;DHT22;43480;53.116;6.734;2022-11-15T14:16:51;12.10;99.90
57652;DHT22;43480;53.116;6.734;2022-11-15T14:24:30;12.00;99.90
57652;DHT22;43480;53.116;6.734;2022-11-15T14:26:56;12.00;99.90
57652;DHT22;43480;53.116;6.734;2022-11-15T14:29:23;12.00;99.90
57652;DHT22;43480;53.116;6.734;2022-11-15T14:31:48;12.00;99.90
57652;DHT22;43480;53.116;6.734;2022-11-15T14:34:14;11.90;99.90
57652;DHT22;43480;53.116;6.734;2022-11-15T14:36:39;11.90;99.90
57652;DHT22;43480;53.116;6.734;2022-11-15T14:39:05;11.80;99.90
57652;DHT22;43480;53.116;6.734;2022-11-15T14:41:34;11.70;99.90
57652;DHT22;43480;53.116;6.734;2022-11-15T14:43:59;11.70;99.90
57652;DHT22;43480;53.116;6.734;2022-11-15T14:46:25;11.60;99.90
57652;DHT22;43480;53.116;6.734;2022-11-15T14:48:50;11.60;99.90
57652;DHT22;43480;53.116;6.734;2022-11-15T14:51:16;11.50;99.90
57652;DHT22;43480;53.116;6.734;2022-11-15T14:53:42;11.50;99.90
57652;DHT22;43480;53.116;6.734;2022-11-15T14:56:08;11.40;99.90
57652;DHT22;43480;53.116;6.734;2022-11-15T14:58:34;11.40;99.90
57652;DHT22;43480;53.116;6.734;2022-11-15T15:01:00;11.30;99.90
57652;DHT22;43480;53.116;6.734;2022-11-15T15:03:27;11.20;99.90
57652;DHT22;43480;53.116;6.734;2022-11-15T15:05:52;11.20;99.90
57652;DHT22;43480;53.116;6.734;2022-11-15T15:08:18;11.10;99.90
57652;DHT22;43480;53.116;6.734;2022-11-15T15:10:44;11.10;99.90
57652;DHT22;43480;53.116;6.734;2022-11-15T15:13:20;11.00;99.90
57652;DHT22;43480;53.116;6.734;2022-11-15T15:15:46;10.90;99.90
57652;DHT22;43480;53.116;6.734;2022-11-15T15:18:12;10.80;99.90
57652;DHT22;43480;53.116;6.734;2022-11-15T15:20:38;10.80;99.90
57652;DHT22;43480;53.116;6.734;2022-11-15T15:23:04;10.70;99.90
57652;DHT22;43480;53.116;6.734;2022-11-15T15:25:31;10.60;99.90
57652;DHT22;43480;53.116;6.734;2022-11-15T15:27:58;10.50;99.90
57652;DHT22;43480;53.116;6.734;2022-11-15T15:30:24;10.40;99.90
57652;DHT22;43480;53.116;6.734;2022-11-15T15:32:50;10.40;99.90
57652;DHT22;43480;53.116;6.734;2022-11-15T15:35:15;10.30;99.90
57652;DHT22;43480;53.116;6.734;2022-11-15T15:37:42;10.30;99.90
57652;DHT22;43480;53.116;6.734;2022-11-15T15:40:14;10.20;99.90
57652;DHT22;43480;53.116;6.734;2022-11-15T15:42:39;10.20;99.90
57652;DHT22;43480;53.116;6.734;2022-11-15T15:45:05;10.20;99.90
57652;DHT22;43480;53.116;6.734;2022-11-15T15:47:31;10.20;99.90
57652;DHT22;43480;53.116;6.734;2022-11-15T15:49:56;10.20;99.90
57652;DHT22;43480;53.116;6.734;2022-11-15T15:52:22;10.20;99.90
57652;DHT22;43480;53.116;6.734;2022-11-15T15:54:47;10.20;99.90
57652;DHT22;43480;53.116;6.734;2022-11-15T15:57:13;10.30;99.90
57652;DHT22;43480;53.116;6.734;2022-11-15T15:59:39;10.30;99.90
57652;DHT22;43480;53.116;6.734;2022-11-15T16:02:05;10.30;99.90
57652;DHT22;43480;53.116;6.734;2022-11-15T16:04:30;10.30;99.90
57652;DHT22;43480;53.116;6.734;2022-11-15T16:06:59;10.20;99.90
57652;DHT22;43480;53.116;6.734;2022-11-15T16:09:25;10.30;99.90
57652;DHT22;43480;53.116;6.734;2022-11-15T16:12:09;10.30;99.90
57652;DHT22;43480;53.116;6.734;2022-11-15T16:14:35;10.30;99.90
57652;DHT22;43480;53.116;6.734;2022-11-15T16:17:00;10.30;99.90
57652;DHT22;43480;53.116;6.734;2022-11-15T16:19:26;10.30;99.90
57652;DHT22;43480;53.116;6.734;2022-11-15T16:21:51;10.30;99.90
57652;DHT22;43480;53.116;6.734;2022-11-15T16:24:17;10.30;99.90
57652;DHT22;43480;53.116;6.734;2022-11-15T16:26:43;10.30;99.90
57652;DHT22;43480;53.116;6.734;2022-11-15T16:29:09;10.30;99.90
57652;DHT22;43480;53.116;6.734;2022-11-15T16:31:35;10.30;99.90
57652;DHT22;43480;53.116;6.734;2022-11-15T16:34:01;10.30;99.90
57652;DHT22;43480;53.116;6.734;2022-11-15T16:36:26;10.30;99.90
57652;DHT22;43480;53.116;6.734;2022-11-15T16:38:52;10.30;99.90
57652;DHT22;43480;53.116;6.734;2022-11-15T16:41:18;10.30;99.90
57652;DHT22;43480;53.116;6.734;2022-11-15T16:43:52;10.30;99.90
57652;DHT22;43480;53.116;6.734;2022-11-15T16:48:46;10.30;99.90
57652;DHT22;43480;53.116;6.734;2022-11-15T16:51:12;10.30;99.90
57652;DHT22;43480;53.116;6.734;2022-11-15T16:53:37;10.30;99.90
57652;DHT22;43480;53.116;6.734;2022-11-15T16:56:03;10.40;99.90
57652;DHT22;43480;53.116;6.734;2022-11-15T16:58:29;10.40;99.90
57652;DHT22;43480;53.116;6.734;2022-11-15T17:00:55;10.40;99.90
57652;DHT22;43480;53.116;6.734;2022-11-15T17:03:21;10.30;99.90
57652;DHT22;43480;53.116;6.734;2022-11-15T17:05:47;10.40;99.90
57652;DHT22;43480;53.116;6.734;2022-11-15T17:08:12;10.40;99.90
57652;DHT22;43480;53.116;6.734;2022-11-15T17:10:38;10.40;99.90
57652;DHT22;43480;53.116;6.734;2022-11-15T17:13:06;10.30;99.90
57652;DHT22;43480;53.116;6.734;2022-11-15T17:15:32;10.40;99.90
57652;DHT22;43480;53.116;6.734;2022-11-15T17:17:57;10.40;99.90
57652;DHT22;43480;53.116;6.734;2022-11-15T17:20:23;10.40;99.90
57652;DHT22;43480;53.116;6.734;2022-11-15T17:22:49;10.40;99.90
57652;DHT22;43480;53.116;6.734;2022-11-15T17:25:15;10.40;99.90
57652;DHT22;43480;53.116;6.734;2022-11-15T17:27:41;10.40;99.90
57652;DHT22;43480;53.116;6.734;2022-11-15T17:30:06;10.30;99.90
57652;DHT22;43480;53.116;6.734;2022-11-15T17:32:34;10.30;99.90
57652;DHT22;43480;53.116;6.734;2022-11-15T17:35:00;10.30;99.90